Nearby METAR Reports

 

KFRG - , , USA
Distance from station: SSW 12mi, 20km
Updated: 10/01/2020 2:53pm
Clear
Clear
 Wind from WSW
Wind: WSW 12 mph , 19 km/h
Temperature: 73°F , 23°C
Dew Point: 54°F , 12°C
Humidity: 50%
Barometer: 29.89 inHg , 1012.2 hPa
Clouds: Clear
Visibility: 10 miles , 16 km
2020/10/01 18:53 KFRG 011853Z 24010KT 10SM CLR 23/12 A2989 RMK AO2 SLP119 T02330117
KISP - , , USA
Distance from station: ESE 14mi, 23km
Updated: 10/01/2020 2:56pm
Partly cloudy
Partly cloudy
 Wind from S
Wind: S 12 mph , 19 km/h
Temperature: 72°F , 22°C
Dew Point: 55°F , 13°C
Humidity: 57%
Barometer: 29.89 inHg , 1012.2 hPa
Clouds: Partly cloudy
Visibility: 10 miles , 16 km
Cloud details: Few Clouds 4500 ft
Few Clouds 10000 ft
Partly cloudy 25000 ft
2020/10/01 18:56 KISP 011856Z 19010KT 10SM FEW045 FEW100 SCT250 22/13 A2989 RMK AO2 SLP120 T02170133
 
KBDR - , , USA
Distance from station: NNE 21mi, 34km
Updated: 10/01/2020 2:52pm
Few Clouds
Few Clouds
 Wind from SSW
Wind: SSW 14 mph , 22 km/h
Temperature: 73°F , 23°C
Dew Point: 54°F , 12°C
Humidity: 50%
Barometer: 29.88 inHg , 1011.9 hPa
Clouds: Few Clouds
Visibility: 10 miles , 16 km
Cloud details: Few Clouds 11000 ft
2020/10/01 18:52 KBDR 011852Z 21012KT 10SM FEW110 23/12 A2988 RMK AO2 SLP118 T02280122
KHPN - , , USA
Distance from station: WNW 22mi, 35km
Updated: 10/01/2020 2:56pm
Partly cloudy
Partly cloudy
 Wind from varies
Wind: varies 5 mph , 7 km/h
Temperature: 68°F , 20°C
Dew Point: 41°F , 5°C
Humidity: 38%
Barometer: 29.89 inHg , 1012.2 hPa
Clouds: Partly cloudy
Visibility: 10 miles , 16 km
Cloud details: Partly cloudy 12000 ft
2020/10/01 18:56 KHPN 011856Z VRB04KT 10SM SCT120 20/05 A2989 RMK AO2 SLP119 T02000050
 
KHWV - , , USA
Distance from station: ESE 26mi, 41km
Updated: 10/01/2020 2:56pm
Clear
Clear
 Wind from SSE
Wind: SSE 12 mph , 19 km/h
Temperature: 72°F , 22°C
Dew Point: 55°F , 13°C
Humidity: 57%
Barometer: 29.90 inHg , 1012.5 hPa
Clouds: Clear
Visibility: 10 miles , 16 km
2020/10/01 18:56 KHWV 011856Z AUTO 16010KT 10SM CLR 22/13 A2990 RMK AO2 SLP124 T02170133
KJFK - , , USA
Distance from station: SW 29mi, 46km
Updated: 10/01/2020 2:51pm
Mostly cloudy
Mostly cloudy
 Wind from WSW
Wind: WSW 15 mph , 24 km/h
Temperature: 73°F , 23°C
Dew Point: 46°F , 8°C
Humidity: 38%
Barometer: 29.91 inHg , 1012.9 hPa
Clouds: Mostly cloudy
Visibility: 10 miles , 16 km
Cloud details: Few Clouds 5500 ft
Mostly cloudy 10000 ft
Mostly cloudy 25000 ft
2020/10/01 18:51 KJFK 011851Z 24013KT 10SM FEW055 BKN100 BKN250 23/08 A2991 RMK AO2 SLP126 T02280078 $
 
KLGA - , , USA
Distance from station: WSW 29mi, 47km
Updated: 10/01/2020 2:51pm
Mostly cloudy
Mostly cloudy
 Wind from WSW
Wind: WSW 9 mph , 15 km/h
Temperature: 73°F , 23°C
Dew Point: 41°F , 5°C
Humidity: 31%
Barometer: 29.89 inHg , 1012.2 hPa
Clouds: Mostly cloudy
Visibility: 10 miles , 16 km
Cloud details: Mostly cloudy 10000 ft
2020/10/01 18:51 KLGA 011851Z 24008KT 10SM BKN100 23/05 A2989 RMK AO2 SLP120 T02280050